sensor_id;sensor_type;location;lat;lon;timestamp;P1;durP1;ratioP1;P2;durP2;ratioP2
28174;SDS011;59417;44.788;10.334;2024-01-06T00:00:24;4.47;;;1.90;;
28174;SDS011;59417;44.788;10.334;2024-01-06T00:02:52;2.47;;;2.03;;
28174;SDS011;59417;44.788;10.334;2024-01-06T00:05:19;4.57;;;1.50;;
28174;SDS011;59417;44.788;10.334;2024-01-06T00:07:49;3.50;;;1.63;;
28174;SDS011;59417;44.788;10.334;2024-01-06T00:10:21;1.42;;;1.33;;
28174;SDS011;59417;44.788;10.334;2024-01-06T00:12:55;1.45;;;1.35;;
28174;SDS011;59417;44.788;10.334;2024-01-06T00:15:39;1.70;;;1.48;;
28174;SDS011;59417;44.788;10.334;2024-01-06T00:18:46;4.22;;;1.58;;
28174;SDS011;59417;44.788;10.334;2024-01-06T00:21:24;1.70;;;1.60;;
28174;SDS011;59417;44.788;10.334;2024-01-06T00:26:31;1.98;;;1.42;;
28174;SDS011;59417;44.788;10.334;2024-01-06T00:32:00;1.60;;;1.50;;
28174;SDS011;59417;44.788;10.334;2024-01-06T00:34:32;1.50;;;1.17;;
28174;SDS011;59417;44.788;10.334;2024-01-06T00:37:03;1.52;;;1.30;;
28174;SDS011;59417;44.788;10.334;2024-01-06T00:39:31;1.48;;;1.38;;
28174;SDS011;59417;44.788;10.334;2024-01-06T00:42:02;1.33;;;1.23;;
28174;SDS011;59417;44.788;10.334;2024-01-06T00:44:31;1.40;;;1.30;;
28174;SDS011;59417;44.788;10.334;2024-01-06T00:47:08;1.30;;;1.20;;
28174;SDS011;59417;44.788;10.334;2024-01-06T00:49:35;1.20;;;1.13;;
28174;SDS011;59417;44.788;10.334;2024-01-06T00:52:14;1.35;;;1.25;;
28174;SDS011;59417;44.788;10.334;2024-01-06T00:54:51;1.92;;;1.20;;
28174;SDS011;59417;44.788;10.334;2024-01-06T00:57:20;1.58;;;1.48;;
28174;SDS011;59417;44.788;10.334;2024-01-06T00:59:51;2.53;;;1.38;;
28174;SDS011;59417;44.788;10.334;2024-01-06T01:02:21;2.78;;;1.42;;
28174;SDS011;59417;44.788;10.334;2024-01-06T01:04:53;1.30;;;1.20;;
28174;SDS011;59417;44.788;10.334;2024-01-06T01:07:54;3.85;;;1.63;;
28174;SDS011;59417;44.788;10.334;2024-01-06T01:11:02;1.95;;;1.65;;
28174;SDS011;59417;44.788;10.334;2024-01-06T01:13:47;2.17;;;1.48;;
28174;SDS011;59417;44.788;10.334;2024-01-06T01:16:24;1.92;;;1.70;;
28174;SDS011;59417;44.788;10.334;2024-01-06T01:18:51;1.70;;;1.60;;
28174;SDS011;59417;44.788;10.334;2024-01-06T01:21:20;3.63;;;2.67;;
28174;SDS011;59417;44.788;10.334;2024-01-06T01:23:51;2.10;;;1.95;;
28174;SDS011;59417;44.788;10.334;2024-01-06T01:26:24;3.28;;;2.25;;
28174;SDS011;59417;44.788;10.334;2024-01-06T01:29:08;2.05;;;1.77;;
28174;SDS011;59417;44.788;10.334;2024-01-06T01:31:50;2.72;;;2.47;;
28174;SDS011;59417;44.788;10.334;2024-01-06T01:34:28;2.40;;;2.13;;
28174;SDS011;59417;44.788;10.334;2024-01-06T01:36:59;2.30;;;1.90;;
28174;SDS011;59417;44.788;10.334;2024-01-06T01:39:33;1.73;;;1.63;;
28174;SDS011;59417;44.788;10.334;2024-01-06T01:42:09;2.30;;;1.92;;
28174;SDS011;59417;44.788;10.334;2024-01-06T01:44:42;1.80;;;1.70;;
28174;SDS011;59417;44.788;10.334;2024-01-06T01:47:12;1.90;;;1.80;;
28174;SDS011;59417;44.788;10.334;2024-01-06T01:49:56;1.90;;;1.70;;
28174;SDS011;59417;44.788;10.334;2024-01-06T01:52:28;2.70;;;1.92;;
28174;SDS011;59417;44.788;10.334;2024-01-06T01:55:27;3.22;;;2.00;;
28174;SDS011;59417;44.788;10.334;2024-01-06T01:57:57;2.13;;;1.85;;
28174;SDS011;59417;44.788;10.334;2024-01-06T02:00:24;1.90;;;1.80;;
28174;SDS011;59417;44.788;10.334;2024-01-06T02:02:56;1.60;;;1.50;;
28174;SDS011;59417;44.788;10.334;2024-01-06T02:05:32;2.15;;;1.75;;
28174;SDS011;59417;44.788;10.334;2024-01-06T02:08:04;2.17;;;1.98;;
28174;SDS011;59417;44.788;10.334;2024-01-06T02:10:34;2.25;;;2.05;;
28174;SDS011;59417;44.788;10.334;2024-01-06T02:13:10;2.45;;;2.25;;
28174;SDS011;59417;44.788;10.334;2024-01-06T02:15:44;2.42;;;2.20;;
28174;SDS011;59417;44.788;10.334;2024-01-06T02:18:11;2.60;;;2.00;;
28174;SDS011;59417;44.788;10.334;2024-01-06T02:21:06;2.42;;;2.22;;
28174;SDS011;59417;44.788;10.334;2024-01-06T02:23:40;2.33;;;2.13;;
28174;SDS011;59417;44.788;10.334;2024-01-06T02:26:09;2.17;;;2.03;;
28174;SDS011;59417;44.788;10.334;2024-01-06T02:28:37;1.85;;;1.75;;
28174;SDS011;59417;44.788;10.334;2024-01-06T02:31:14;2.40;;;2.20;;
28174;SDS011;59417;44.788;10.334;2024-01-06T02:33:51;3.08;;;2.30;;
28174;SDS011;59417;44.788;10.334;2024-01-06T02:36:26;2.45;;;2.25;;
28174;SDS011;59417;44.788;10.334;2024-01-06T02:39:06;2.95;;;2.60;;
28174;SDS011;59417;44.788;10.334;2024-01-06T02:41:42;2.55;;;2.30;;
28174;SDS011;59417;44.788;10.334;2024-01-06T02:44:17;3.05;;;2.75;;
28174;SDS011;59417;44.788;10.334;2024-01-06T02:49:21;2.53;;;2.33;;
28174;SDS011;59417;44.788;10.334;2024-01-06T02:51:58;2.83;;;2.58;;
28174;SDS011;59417;44.788;10.334;2024-01-06T02:54:31;2.72;;;2.53;;
28174;SDS011;59417;44.788;10.334;2024-01-06T02:57:16;2.75;;;2.55;;
28174;SDS011;59417;44.788;10.334;2024-01-06T02:59:48;2.90;;;2.70;;
28174;SDS011;59417;44.788;10.334;2024-01-06T03:02:24;2.95;;;2.65;;
28174;SDS011;59417;44.788;10.334;2024-01-06T03:05:00;2.63;;;2.42;;
28174;SDS011;59417;44.788;10.334;2024-01-06T03:07:32;2.88;;;2.53;;
28174;SDS011;59417;44.788;10.334;2024-01-06T03:10:03;3.55;;;3.13;;
28174;SDS011;59417;44.788;10.334;2024-01-06T03:12:38;3.78;;;3.47;;
28174;SDS011;59417;44.788;10.334;2024-01-06T03:15:07;3.60;;;3.30;;
28174;SDS011;59417;44.788;10.334;2024-01-06T03:17:40;2.90;;;2.70;;
28174;SDS011;59417;44.788;10.334;2024-01-06T03:20:30;2.80;;;2.60;;
28174;SDS011;59417;44.788;10.334;2024-01-06T03:23:03;3.20;;;2.80;;
28174;SDS011;59417;44.788;10.334;2024-01-06T03:25:40;3.25;;;2.92;;
28174;SDS011;59417;44.788;10.334;2024-01-06T03:28:29;3.15;;;2.60;;
28174;SDS011;59417;44.788;10.334;2024-01-06T03:31:08;2.42;;;2.22;;
28174;SDS011;59417;44.788;10.334;2024-01-06T03:33:44;2.33;;;2.13;;
28174;SDS011;59417;44.788;10.334;2024-01-06T03:36:15;2.20;;;2.00;;
28174;SDS011;59417;44.788;10.334;2024-01-06T03:38:45;2.30;;;2.03;;
28174;SDS011;59417;44.788;10.334;2024-01-06T03:41:18;3.42;;;2.70;;
28174;SDS011;59417;44.788;10.334;2024-01-06T03:43:53;2.40;;;2.20;;
28174;SDS011;59417;44.788;10.334;2024-01-06T03:46:23;2.13;;;1.90;;
28174;SDS011;59417;44.788;10.334;2024-01-06T03:48:54;2.30;;;2.10;;
28174;SDS011;59417;44.788;10.334;2024-01-06T03:51:21;1.65;;;1.55;;
28174;SDS011;59417;44.788;10.334;2024-01-06T03:53:50;2.15;;;1.95;;
28174;SDS011;59417;44.788;10.334;2024-01-06T03:56:19;3.38;;;1.70;;
28174;SDS011;59417;44.788;10.334;2024-01-06T03:59:02;2.15;;;1.95;;
28174;SDS011;59417;44.788;10.334;2024-01-06T04:01:42;1.95;;;1.80;;
28174;SDS011;59417;44.788;10.334;2024-01-06T04:04:12;1.80;;;1.70;;
28174;SDS011;59417;44.788;10.334;2024-01-06T04:06:42;3.47;;;2.33;;
28174;SDS011;59417;44.788;10.334;2024-01-06T04:09:08;2.60;;;2.13;;
28174;SDS011;59417;44.788;10.334;2024-01-06T04:11:42;1.77;;;1.67;;
28174;SDS011;59417;44.788;10.334;2024-01-06T04:14:13;1.95;;;1.77;;
28174;SDS011;59417;44.788;10.334;2024-01-06T04:16:50;2.45;;;2.25;;
28174;SDS011;59417;44.788;10.334;2024-01-06T04:19:19;2.63;;;2.42;;
28174;SDS011;59417;44.788;10.334;2024-01-06T04:22:02;2.30;;;2.10;;
28174;SDS011;59417;44.788;10.334;2024-01-06T04:24:37;2.15;;;1.95;;
28174;SDS011;59417;44.788;10.334;2024-01-06T04:27:08;2.57;;;2.10;;
28174;SDS011;59417;44.788;10.334;2024-01-06T04:29:41;2.53;;;2.05;;
28174;SDS011;59417;44.788;10.334;2024-01-06T04:32:40;2.40;;;2.20;;
28174;SDS011;59417;44.788;10.334;2024-01-06T04:35:10;2.42;;;2.22;;
28174;SDS011;59417;44.788;10.334;2024-01-06T04:37:41;2.88;;;2.33;;
28174;SDS011;59417;44.788;10.334;2024-01-06T04:40:14;2.70;;;2.45;;
28174;SDS011;59417;44.788;10.334;2024-01-06T04:42:49;2.40;;;2.20;;
28174;SDS011;59417;44.788;10.334;2024-01-06T04:45:16;3.22;;;2.92;;
28174;SDS011;59417;44.788;10.334;2024-01-06T04:47:50;2.55;;;2.35;;
28174;SDS011;59417;44.788;10.334;2024-01-06T04:50:22;4.07;;;3.50;;
28174;SDS011;59417;44.788;10.334;2024-01-06T04:52:54;2.95;;;2.65;;
28174;SDS011;59417;44.788;10.334;2024-01-06T04:55:24;3.22;;;2.92;;
28174;SDS011;59417;44.788;10.334;2024-01-06T04:57:59;3.20;;;2.90;;
28174;SDS011;59417;44.788;10.334;2024-01-06T05:00:40;2.88;;;2.63;;
28174;SDS011;59417;44.788;10.334;2024-01-06T05:03:24;3.08;;;2.85;;
28174;SDS011;59417;44.788;10.334;2024-01-06T05:05:57;3.08;;;2.63;;
28174;SDS011;59417;44.788;10.334;2024-01-06T05:08:51;3.90;;;2.95;;
28174;SDS011;59417;44.788;10.334;2024-01-06T05:11:20;3.28;;;2.58;;
28174;SDS011;59417;44.788;10.334;2024-01-06T05:13:47;3.13;;;2.90;;
28174;SDS011;59417;44.788;10.334;2024-01-06T05:16:19;3.42;;;2.83;;
28174;SDS011;59417;44.788;10.334;2024-01-06T05:18:49;3.00;;;2.75;;
28174;SDS011;59417;44.788;10.334;2024-01-06T05:21:21;4.50;;;2.60;;
28174;SDS011;59417;44.788;10.334;2024-01-06T05:23:48;3.10;;;2.17;;
28174;SDS011;59417;44.788;10.334;2024-01-06T05:26:20;2.60;;;2.40;;
28174;SDS011;59417;44.788;10.334;2024-01-06T05:28:50;3.23;;;2.73;;
28174;SDS011;59417;44.788;10.334;2024-01-06T05:31:35;2.58;;;2.28;;
28174;SDS011;59417;44.788;10.334;2024-01-06T05:34:04;2.53;;;2.33;;
28174;SDS011;59417;44.788;10.334;2024-01-06T05:36:31;2.80;;;2.50;;
28174;SDS011;59417;44.788;10.334;2024-01-06T05:38:58;3.20;;;2.45;;
28174;SDS011;59417;44.788;10.334;2024-01-06T05:41:26;2.83;;;2.42;;
28174;SDS011;59417;44.788;10.334;2024-01-06T05:43:55;3.08;;;2.65;;
28174;SDS011;59417;44.788;10.334;2024-01-06T05:46:33;4.10;;;2.80;;
28174;SDS011;59417;44.788;10.334;2024-01-06T05:49:05;3.42;;;3.05;;
28174;SDS011;59417;44.788;10.334;2024-01-06T05:51:32;3.35;;;3.05;;
28174;SDS011;59417;44.788;10.334;2024-01-06T05:53:58;3.95;;;2.72;;
28174;SDS011;59417;44.788;10.334;2024-01-06T05:56:25;3.55;;;3.25;;
28174;SDS011;59417;44.788;10.334;2024-01-06T05:58:56;3.70;;;3.40;;
28174;SDS011;59417;44.788;10.334;2024-01-06T06:01:23;3.13;;;2.88;;
28174;SDS011;59417;44.788;10.334;2024-01-06T06:03:54;4.05;;;3.30;;
28174;SDS011;59417;44.788;10.334;2024-01-06T06:06:21;3.42;;;3.00;;
28174;SDS011;59417;44.788;10.334;2024-01-06T06:08:50;2.90;;;2.63;;
28174;SDS011;59417;44.788;10.334;2024-01-06T06:11:16;2.58;;;2.38;;
28174;SDS011;59417;44.788;10.334;2024-01-06T06:13:44;3.22;;;2.90;;
28174;SDS011;59417;44.788;10.334;2024-01-06T06:16:10;2.88;;;2.63;;
28174;SDS011;59417;44.788;10.334;2024-01-06T06:18:41;2.80;;;2.55;;
28174;SDS011;59417;44.788;10.334;2024-01-06T06:21:10;3.20;;;2.90;;
28174;SDS011;59417;44.788;10.334;2024-01-06T06:23:38;2.80;;;2.50;;
28174;SDS011;59417;44.788;10.334;2024-01-06T06:26:08;4.47;;;2.75;;
28174;SDS011;59417;44.788;10.334;2024-01-06T06:28:41;4.57;;;3.03;;
28174;SDS011;59417;44.788;10.334;2024-01-06T06:31:10;3.00;;;2.70;;
28174;SDS011;59417;44.788;10.334;2024-01-06T06:33:40;3.30;;;2.70;;
28174;SDS011;59417;44.788;10.334;2024-01-06T06:36:11;2.85;;;2.65;;
28174;SDS011;59417;44.788;10.334;2024-01-06T06:38:41;4.43;;;3.17;;
28174;SDS011;59417;44.788;10.334;2024-01-06T06:41:08;4.05;;;2.85;;
28174;SDS011;59417;44.788;10.334;2024-01-06T06:43:35;3.08;;;2.78;;
28174;SDS011;59417;44.788;10.334;2024-01-06T06:46:01;2.78;;;2.53;;
28174;SDS011;59417;44.788;10.334;2024-01-06T06:48:28;4.28;;;2.72;;
28174;SDS011;59417;44.788;10.334;2024-01-06T06:51:02;2.90;;;2.70;;
28174;SDS011;59417;44.788;10.334;2024-01-06T06:53:32;3.00;;;2.70;;
28174;SDS011;59417;44.788;10.334;2024-01-06T06:55:58;4.70;;;3.13;;
28174;SDS011;59417;44.788;10.334;2024-01-06T06:58:25;3.30;;;3.00;;
28174;SDS011;59417;44.788;10.334;2024-01-06T07:00:56;5.57;;;3.33;;
28174;SDS011;59417;44.788;10.334;2024-01-06T07:03:29;4.18;;;3.10;;
28174;SDS011;59417;44.788;10.334;2024-01-06T07:05:59;3.42;;;3.13;;
28174;SDS011;59417;44.788;10.334;2024-01-06T07:08:26;3.90;;;3.53;;
28174;SDS011;59417;44.788;10.334;2024-01-06T07:10:53;3.53;;;3.22;;
28174;SDS011;59417;44.788;10.334;2024-01-06T07:13:20;3.70;;;3.10;;
28174;SDS011;59417;44.788;10.334;2024-01-06T07:15:48;4.80;;;4.18;;
28174;SDS011;59417;44.788;10.334;2024-01-06T07:18:15;5.93;;;3.42;;
28174;SDS011;59417;44.788;10.334;2024-01-06T07:20:52;4.28;;;3.90;;
28174;SDS011;59417;44.788;10.334;2024-01-06T07:23:19;7.93;;;3.80;;
28174;SDS011;59417;44.788;10.334;2024-01-06T07:25:46;4.30;;;3.90;;
28174;SDS011;59417;44.788;10.334;2024-01-06T07:28:16;5.50;;;4.97;;
28174;SDS011;59417;44.788;10.334;2024-01-06T07:30:43;5.97;;;4.28;;
28174;SDS011;59417;44.788;10.334;2024-01-06T07:33:16;5.72;;;5.15;;
28174;SDS011;59417;44.788;10.334;2024-01-06T07:35:44;6.40;;;4.93;;
28174;SDS011;59417;44.788;10.334;2024-01-06T07:38:13;6.35;;;5.68;;
28174;SDS011;59417;44.788;10.334;2024-01-06T07:40:43;7.38;;;5.68;;
28174;SDS011;59417;44.788;10.334;2024-01-06T07:43:24;7.03;;;6.00;;
28174;SDS011;59417;44.788;10.334;2024-01-06T07:45:53;6.28;;;5.38;;
28174;SDS011;59417;44.788;10.334;2024-01-06T07:48:23;6.75;;;5.60;;
28174;SDS011;59417;44.788;10.334;2024-01-06T07:50:56;9.70;;;5.95;;
28174;SDS011;59417;44.788;10.334;2024-01-06T07:53:28;8.30;;;6.45;;
28174;SDS011;59417;44.788;10.334;2024-01-06T07:55:58;10.75;;;7.13;;
28174;SDS011;59417;44.788;10.334;2024-01-06T07:58:25;9.15;;;7.85;;
28174;SDS011;59417;44.788;10.334;2024-01-06T08:00:56;10.35;;;8.32;;
28174;SDS011;59417;44.788;10.334;2024-01-06T08:03:27;9.30;;;7.95;;
28174;SDS011;59417;44.788;10.334;2024-01-06T08:05:55;10.10;;;7.97;;
28174;SDS011;59417;44.788;10.334;2024-01-06T08:08:24;7.97;;;7.18;;
28174;SDS011;59417;44.788;10.334;2024-01-06T08:10:56;9.43;;;8.43;;
28174;SDS011;59417;44.788;10.334;2024-01-06T08:13:22;9.13;;;8.23;;
28174;SDS011;59417;44.788;10.334;2024-01-06T08:15:49;10.13;;;7.88;;
28174;SDS011;59417;44.788;10.334;2024-01-06T08:18:17;8.70;;;7.80;;
28174;SDS011;59417;44.788;10.334;2024-01-06T08:20:50;10.43;;;8.45;;
28174;SDS011;59417;44.788;10.334;2024-01-06T08:23:21;8.90;;;8.00;;
28174;SDS011;59417;44.788;10.334;2024-01-06T08:25:51;11.70;;;8.77;;
28174;SDS011;59417;44.788;10.334;2024-01-06T08:28:26;11.27;;;8.75;;
28174;SDS011;59417;44.788;10.334;2024-01-06T08:31:01;9.23;;;8.20;;
28174;SDS011;59417;44.788;10.334;2024-01-06T08:33:34;12.48;;;9.02;;
28174;SDS011;59417;44.788;10.334;2024-01-06T08:36:07;13.77;;;8.50;;
28174;SDS011;59417;44.788;10.334;2024-01-06T08:38:35;9.50;;;7.70;;
28174;SDS011;59417;44.788;10.334;2024-01-06T08:41:01;10.20;;;7.40;;
28174;SDS011;59417;44.788;10.334;2024-01-06T08:43:34;10.68;;;9.57;;
28174;SDS011;59417;44.788;10.334;2024-01-06T08:46:02;10.68;;;8.75;;
28174;SDS011;59417;44.788;10.334;2024-01-06T08:48:32;9.80;;;8.02;;
28174;SDS011;59417;44.788;10.334;2024-01-06T08:50:59;9.00;;;7.72;;
28174;SDS011;59417;44.788;10.334;2024-01-06T08:53:25;10.10;;;8.68;;
28174;SDS011;59417;44.788;10.334;2024-01-06T08:55:59;12.13;;;9.05;;
28174;SDS011;59417;44.788;10.334;2024-01-06T08:58:29;9.05;;;7.55;;
28174;SDS011;59417;44.788;10.334;2024-01-06T09:00:56;11.88;;;8.57;;
28174;SDS011;59417;44.788;10.334;2024-01-06T09:03:35;9.40;;;8.40;;
28174;SDS011;59417;44.788;10.334;2024-01-06T09:06:02;9.65;;;8.52;;
28174;SDS011;59417;44.788;10.334;2024-01-06T09:08:41;9.20;;;7.35;;
28174;SDS011;59417;44.788;10.334;2024-01-06T09:11:08;9.17;;;8.27;;
28174;SDS011;59417;44.788;10.334;2024-01-06T09:13:41;9.70;;;8.15;;
28174;SDS011;59417;44.788;10.334;2024-01-06T09:16:09;9.73;;;7.97;;
28174;SDS011;59417;44.788;10.334;2024-01-06T09:18:38;12.25;;;8.30;;
28174;SDS011;59417;44.788;10.334;2024-01-06T09:21:06;9.40;;;7.68;;
28174;SDS011;59417;44.788;10.334;2024-01-06T09:23:50;9.32;;;7.25;;
28174;SDS011;59417;44.788;10.334;2024-01-06T09:26:17;9.70;;;7.43;;
28174;SDS011;59417;44.788;10.334;2024-01-06T09:28:45;10.35;;;7.18;;
28174;SDS011;59417;44.788;10.334;2024-01-06T09:31:15;9.10;;;8.13;;
28174;SDS011;59417;44.788;10.334;2024-01-06T09:33:44;9.50;;;7.22;;
28174;SDS011;59417;44.788;10.334;2024-01-06T09:36:19;8.43;;;7.00;;
28174;SDS011;59417;44.788;10.334;2024-01-06T09:38:47;9.75;;;6.95;;
28174;SDS011;59417;44.788;10.334;2024-01-06T09:41:15;10.13;;;8.10;;
28174;SDS011;59417;44.788;10.334;2024-01-06T09:43:49;9.73;;;6.20;;
28174;SDS011;59417;44.788;10.334;2024-01-06T09:46:38;8.75;;;7.43;;
28174;SDS011;59417;44.788;10.334;2024-01-06T09:49:05;7.57;;;6.15;;
28174;SDS011;59417;44.788;10.334;2024-01-06T09:51:44;8.27;;;6.47;;
28174;SDS011;59417;44.788;10.334;2024-01-06T09:54:22;7.82;;;6.15;;
28174;SDS011;59417;44.788;10.334;2024-01-06T09:56:50;8.00;;;6.20;;
28174;SDS011;59417;44.788;10.334;2024-01-06T09:59:22;6.47;;;5.75;;
28174;SDS011;59417;44.788;10.334;2024-01-06T10:01:55;6.65;;;5.95;;
28174;SDS011;59417;44.788;10.334;2024-01-06T10:04:30;5.80;;;5.25;;
28174;SDS011;59417;44.788;10.334;2024-01-06T10:07:00;9.27;;;6.55;;
28174;SDS011;59417;44.788;10.334;2024-01-06T10:09:31;6.40;;;5.72;;
28174;SDS011;59417;44.788;10.334;2024-01-06T10:12:02;6.40;;;5.78;;
28174;SDS011;59417;44.788;10.334;2024-01-06T10:14:33;6.60;;;5.60;;
28174;SDS011;59417;44.788;10.334;2024-01-06T10:17:06;7.07;;;5.30;;
28174;SDS011;59417;44.788;10.334;2024-01-06T10:19:35;9.57;;;5.38;;
28174;SDS011;59417;44.788;10.334;2024-01-06T10:22:03;6.15;;;5.35;;
28174;SDS011;59417;44.788;10.334;2024-01-06T10:24:36;6.75;;;5.22;;
28174;SDS011;59417;44.788;10.334;2024-01-06T10:27:06;5.90;;;4.78;;
28174;SDS011;59417;44.788;10.334;2024-01-06T10:29:38;6.60;;;5.33;;
28174;SDS011;59417;44.788;10.334;2024-01-06T10:32:05;6.47;;;5.38;;
28174;SDS011;59417;44.788;10.334;2024-01-06T10:34:31;6.88;;;5.05;;
28174;SDS011;59417;44.788;10.334;2024-01-06T10:37:02;5.55;;;4.57;;
28174;SDS011;59417;44.788;10.334;2024-01-06T10:39:32;5.38;;;4.50;;
28174;SDS011;59417;44.788;10.334;2024-01-06T10:42:00;8.05;;;5.32;;
28174;SDS011;59417;44.788;10.334;2024-01-06T10:44:33;6.50;;;5.25;;
28174;SDS011;59417;44.788;10.334;2024-01-06T10:47:03;5.28;;;4.50;;
28174;SDS011;59417;44.788;10.334;2024-01-06T10:49:33;6.50;;;5.05;;
28174;SDS011;59417;44.788;10.334;2024-01-06T10:52:11;5.80;;;4.82;;
28174;SDS011;59417;44.788;10.334;2024-01-06T10:54:45;5.85;;;5.15;;
28174;SDS011;59417;44.788;10.334;2024-01-06T10:57:19;6.32;;;5.22;;
28174;SDS011;59417;44.788;10.334;2024-01-06T10:59:48;6.22;;;5.63;;
28174;SDS011;59417;44.788;10.334;2024-01-06T11:02:20;6.03;;;4.63;;
28174;SDS011;59417;44.788;10.334;2024-01-06T11:04:54;6.22;;;4.88;;
28174;SDS011;59417;44.788;10.334;2024-01-06T11:07:24;6.00;;;5.47;;
28174;SDS011;59417;44.788;10.334;2024-01-06T11:10:14;5.82;;;5.15;;
28174;SDS011;59417;44.788;10.334;2024-01-06T11:12:46;6.60;;;5.20;;
28174;SDS011;59417;44.788;10.334;2024-01-06T11:15:49;6.95;;;5.78;;
28174;SDS011;59417;44.788;10.334;2024-01-06T11:18:36;6.13;;;5.30;;
28174;SDS011;59417;44.788;10.334;2024-01-06T11:21:14;7.43;;;5.28;;
28174;SDS011;59417;44.788;10.334;2024-01-06T11:26:44;5.03;;;4.53;;
28174;SDS011;59417;44.788;10.334;2024-01-06T11:29:18;4.60;;;4.07;;
28174;SDS011;59417;44.788;10.334;2024-01-06T11:34:47;6.43;;;4.43;;
28174;SDS011;59417;44.788;10.334;2024-01-06T11:37:36;5.35;;;4.18;;
28174;SDS011;59417;44.788;10.334;2024-01-06T11:42:47;5.47;;;4.13;;
28174;SDS011;59417;44.788;10.334;2024-01-06T11:45:15;5.10;;;4.32;;
28174;SDS011;59417;44.788;10.334;2024-01-06T11:47:47;4.95;;;4.45;;
28174;SDS011;59417;44.788;10.334;2024-01-06T11:50:18;4.90;;;4.40;;
28174;SDS011;59417;44.788;10.334;2024-01-06T11:52:48;3.78;;;3.42;;
28174;SDS011;59417;44.788;10.334;2024-01-06T11:55:21;5.05;;;4.53;;
28174;SDS011;59417;44.788;10.334;2024-01-06T11:57:55;4.50;;;4.10;;
28174;SDS011;59417;44.788;10.334;2024-01-06T12:00:30;5.00;;;3.28;;
28174;SDS011;59417;44.788;10.334;2024-01-06T12:03:08;5.28;;;3.70;;
28174;SDS011;59417;44.788;10.334;2024-01-06T12:05:36;4.22;;;3.83;;
28174;SDS011;59417;44.788;10.334;2024-01-06T12:08:11;5.40;;;3.65;;
28174;SDS011;59417;44.788;10.334;2024-01-06T12:11:06;3.88;;;3.45;;
28174;SDS011;59417;44.788;10.334;2024-01-06T12:13:39;3.28;;;2.90;;
28174;SDS011;59417;44.788;10.334;2024-01-06T12:16:17;4.00;;;3.63;;
28174;SDS011;59417;44.788;10.334;2024-01-06T12:18:45;3.60;;;3.30;;
28174;SDS011;59417;44.788;10.334;2024-01-06T12:21:16;4.10;;;3.80;;
28174;SDS011;59417;44.788;10.334;2024-01-06T12:23:45;5.05;;;3.72;;
28174;SDS011;59417;44.788;10.334;2024-01-06T12:26:12;4.03;;;3.63;;
28174;SDS011;59417;44.788;10.334;2024-01-06T12:28:46;5.93;;;3.53;;
28174;SDS011;59417;44.788;10.334;2024-01-06T12:31:15;4.13;;;3.58;;
28174;SDS011;59417;44.788;10.334;2024-01-06T12:33:41;6.20;;;3.47;;
28174;SDS011;59417;44.788;10.334;2024-01-06T12:36:08;4.13;;;3.70;;
28174;SDS011;59417;44.788;10.334;2024-01-06T12:38:37;4.72;;;4.18;;
28174;SDS011;59417;44.788;10.334;2024-01-06T12:41:07;4.15;;;3.47;;
28174;SDS011;59417;44.788;10.334;2024-01-06T12:43:35;4.07;;;3.38;;
28174;SDS011;59417;44.788;10.334;2024-01-06T12:46:01;4.68;;;4.22;;
28174;SDS011;59417;44.788;10.334;2024-01-06T12:48:30;4.35;;;3.78;;
28174;SDS011;59417;44.788;10.334;2024-01-06T12:50:56;5.82;;;4.00;;
28174;SDS011;59417;44.788;10.334;2024-01-06T12:53:29;5.35;;;3.80;;
28174;SDS011;59417;44.788;10.334;2024-01-06T12:55:59;4.05;;;3.45;;
28174;SDS011;59417;44.788;10.334;2024-01-06T12:58:26;3.65;;;3.35;;
28174;SDS011;59417;44.788;10.334;2024-01-06T13:00:54;4.10;;;3.47;;
28174;SDS011;59417;44.788;10.334;2024-01-06T13:03:28;3.70;;;3.40;;
28174;SDS011;59417;44.788;10.334;2024-01-06T13:08:24;3.88;;;3.58;;
28174;SDS011;59417;44.788;10.334;2024-01-06T13:10:50;3.70;;;3.40;;
28174;SDS011;59417;44.788;10.334;2024-01-06T13:13:24;3.20;;;2.78;;
28174;SDS011;59417;44.788;10.334;2024-01-06T13:15:56;4.60;;;3.90;;
28174;SDS011;59417;44.788;10.334;2024-01-06T13:18:23;3.15;;;2.80;;
28174;SDS011;59417;44.788;10.334;2024-01-06T13:20:50;3.85;;;3.22;;
28174;SDS011;59417;44.788;10.334;2024-01-06T13:23:19;3.72;;;3.30;;
28174;SDS011;59417;44.788;10.334;2024-01-06T13:25:46;4.55;;;3.72;;
28174;SDS011;59417;44.788;10.334;2024-01-06T13:28:18;3.75;;;3.42;;
28174;SDS011;59417;44.788;10.334;2024-01-06T13:30:44;5.03;;;3.20;;
28174;SDS011;59417;44.788;10.334;2024-01-06T13:33:12;4.22;;;3.35;;
28174;SDS011;59417;44.788;10.334;2024-01-06T13:35:43;3.90;;;3.50;;
28174;SDS011;59417;44.788;10.334;2024-01-06T13:38:10;5.53;;;3.45;;
28174;SDS011;59417;44.788;10.334;2024-01-06T13:40:43;3.22;;;2.95;;
28174;SDS011;59417;44.788;10.334;2024-01-06T13:43:10;3.20;;;2.90;;
28174;SDS011;59417;44.788;10.334;2024-01-06T13:45:42;2.80;;;2.60;;
28174;SDS011;59417;44.788;10.334;2024-01-06T13:48:19;2.92;;;2.65;;
28174;SDS011;59417;44.788;10.334;2024-01-06T13:50:49;2.30;;;2.10;;
28174;SDS011;59417;44.788;10.334;2024-01-06T13:53:16;3.03;;;2.67;;
28174;SDS011;59417;44.788;10.334;2024-01-06T13:55:44;4.43;;;2.53;;
28174;SDS011;59417;44.788;10.334;2024-01-06T13:58:11;3.47;;;2.70;;
28174;SDS011;59417;44.788;10.334;2024-01-06T14:00:40;3.67;;;3.00;;
28174;SDS011;59417;44.788;10.334;2024-01-06T14:03:06;3.53;;;3.22;;
28174;SDS011;59417;44.788;10.334;2024-01-06T14:05:33;3.25;;;2.95;;
28174;SDS011;59417;44.788;10.334;2024-01-06T14:08:00;3.60;;;3.30;;
28174;SDS011;59417;44.788;10.334;2024-01-06T14:10:34;4.47;;;3.30;;
28174;SDS011;59417;44.788;10.334;2024-01-06T14:13:03;3.20;;;2.90;;
28174;SDS011;59417;44.788;10.334;2024-01-06T14:18:03;3.25;;;2.95;;
28174;SDS011;59417;44.788;10.334;2024-01-06T14:20:38;2.58;;;2.38;;
28174;SDS011;59417;44.788;10.334;2024-01-06T14:23:06;2.85;;;2.60;;
28174;SDS011;59417;44.788;10.334;2024-01-06T14:25:38;3.38;;;3.08;;
28174;SDS011;59417;44.788;10.334;2024-01-06T14:28:05;4.28;;;2.25;;
28174;SDS011;59417;44.788;10.334;2024-01-06T14:30:52;2.40;;;2.20;;
28174;SDS011;59417;44.788;10.334;2024-01-06T14:33:20;2.63;;;2.42;;
28174;SDS011;59417;44.788;10.334;2024-01-06T14:35:47;4.22;;;2.65;;
28174;SDS011;59417;44.788;10.334;2024-01-06T14:38:14;3.33;;;3.03;;
28174;SDS011;59417;44.788;10.334;2024-01-06T14:40:43;2.80;;;2.60;;
28174;SDS011;59417;44.788;10.334;2024-01-06T14:43:20;4.30;;;2.55;;
28174;SDS011;59417;44.788;10.334;2024-01-06T14:45:49;2.83;;;2.60;;
28174;SDS011;59417;44.788;10.334;2024-01-06T14:48:16;2.92;;;2.72;;
28174;SDS011;59417;44.788;10.334;2024-01-06T14:50:47;2.70;;;2.50;;
28174;SDS011;59417;44.788;10.334;2024-01-06T14:53:14;2.97;;;2.75;;
28174;SDS011;59417;44.788;10.334;2024-01-06T14:56:01;3.60;;;2.60;;
28174;SDS011;59417;44.788;10.334;2024-01-06T14:58:36;3.47;;;2.72;;
28174;SDS011;59417;44.788;10.334;2024-01-06T15:01:02;3.17;;;2.90;;
28174;SDS011;59417;44.788;10.334;2024-01-06T15:03:31;3.50;;;3.20;;
28174;SDS011;59417;44.788;10.334;2024-01-06T15:05:59;3.50;;;3.20;;
28174;SDS011;59417;44.788;10.334;2024-01-06T15:08:27;3.20;;;2.90;;
28174;SDS011;59417;44.788;10.334;2024-01-06T15:10:55;3.75;;;3.45;;
28174;SDS011;59417;44.788;10.334;2024-01-06T15:13:21;3.75;;;3.45;;
28174;SDS011;59417;44.788;10.334;2024-01-06T15:15:50;3.97;;;3.58;;
28174;SDS011;59417;44.788;10.334;2024-01-06T15:18:19;4.72;;;4.32;;
28174;SDS011;59417;44.788;10.334;2024-01-06T15:20:46;4.93;;;4.45;;
28174;SDS011;59417;44.788;10.334;2024-01-06T15:23:14;6.45;;;5.10;;